createdAt,value
2022-09-23T09:42:43.541Z,10.45
2022-09-23T09:47:51.838Z,8.18
2022-09-23T09:52:43.469Z,8.60
2022-09-23T09:57:42.829Z,9.32
2022-09-23T10:02:44.112Z,11.10
2022-09-23T10:07:37.330Z,8.52
2022-09-23T10:12:28.850Z,11.05
2022-09-23T10:17:25.091Z,11.07
2022-09-23T10:22:29.848Z,9.10
2022-09-23T10:27:31.724Z,10.05
2022-09-23T10:32:29.904Z,10.93
2022-09-23T10:37:30.524Z,10.65
2022-09-23T10:42:40.789Z,12.00
2022-09-23T10:47:43.908Z,11.35
2022-09-23T10:52:47.658Z,10.25
2022-09-23T10:57:54.359Z,10.27
2022-09-23T11:03:15.516Z,10.20
2022-09-23T11:08:29.909Z,8.95
2022-09-23T11:13:33.654Z,6.15
2022-09-23T11:18:50.741Z,6.38
2022-09-23T11:24:00.587Z,4.68
2022-09-23T11:29:14.438Z,4.28
2022-09-23T11:34:30.407Z,4.28
2022-09-23T11:39:26.518Z,4.43
2022-09-23T11:44:23.618Z,5.10
2022-09-23T11:49:22.163Z,6.55
2022-09-23T11:54:26.361Z,4.78
2022-09-23T11:59:34.635Z,5.95
2022-09-23T12:04:47.472Z,4.57
2022-09-23T12:10:01.625Z,5.47
2022-09-23T12:15:04.856Z,4.95
2022-09-23T12:20:31.437Z,5.53
2022-09-23T12:25:40.342Z,7.47
2022-09-23T12:30:35.069Z,5.85
2022-09-23T12:35:35.808Z,4.75
2022-09-23T12:40:36.262Z,4.68
2022-09-23T12:45:41.812Z,4.97
2022-09-23T12:50:55.837Z,4.13
2022-09-23T12:55:52.197Z,5.33
2022-09-23T13:01:06.600Z,5.15
2022-09-23T13:06:16.223Z,3.10
2022-09-23T13:11:12.973Z,4.68
2022-09-23T13:16:16.128Z,5.28
2022-09-23T13:21:20.509Z,5.20
2022-09-23T13:26:14.423Z,6.00
2022-09-23T13:31:08.752Z,4.80
2022-09-23T13:36:07.152Z,6.72
2022-09-23T13:41:05.626Z,7.80
2022-09-23T13:45:58.490Z,5.25
2022-09-23T13:50:53.759Z,5.68
2022-09-23T13:55:51.632Z,6.60
2022-09-23T14:00:48.884Z,7.65
2022-09-23T14:05:43.382Z,8.00
2022-09-23T14:10:34.448Z,6.88
2022-09-23T14:15:25.806Z,8.55
2022-09-23T14:20:20.845Z,8.87
2022-09-23T14:25:17.566Z,8.83
2022-09-23T14:30:20.713Z,8.23
2022-09-23T14:35:27.324Z,9.02
2022-09-23T14:40:28.501Z,13.50
2022-09-23T14:45:23.201Z,10.95
2022-09-23T14:50:37.066Z,10.90
2022-09-23T14:55:32.025Z,12.88
2022-09-23T15:00:28.093Z,12.65
2022-09-23T15:05:26.868Z,11.60
2022-09-23T15:10:23.780Z,10.50
2022-09-23T15:15:18.383Z,11.07
2022-09-23T15:20:19.723Z,8.80
2022-09-23T15:25:21.338Z,10.07
2022-09-23T15:30:18.332Z,9.18
2022-09-23T15:35:09.893Z,9.88
2022-09-23T15:40:03.685Z,9.87
2022-09-23T15:45:08.451Z,10.32
2022-09-23T15:50:00.054Z,12.27
2022-09-23T15:54:50.361Z,11.27
2022-09-23T15:59:41.147Z,11.55
2022-09-23T16:04:40.022Z,11.65
2022-09-23T16:09:31.908Z,11.18
2022-09-23T16:14:23.689Z,11.27
2022-09-23T16:19:16.704Z,11.98
2022-09-23T16:24:16.375Z,11.55
2022-09-23T16:29:07.119Z,14.07
2022-09-23T16:34:08.932Z,14.60
2022-09-23T16:39:03.030Z,14.95
2022-09-23T16:43:56.627Z,14.63
2022-09-23T16:48:52.888Z,13.48
2022-09-23T16:53:46.050Z,13.20
2022-09-23T16:58:37.460Z,13.07
2022-09-23T17:03:43.742Z,12.73
2022-09-23T17:08:35.128Z,13.55
2022-09-23T17:13:27.797Z,12.97
2022-09-23T17:18:19.654Z,12.27
2022-09-23T17:23:15.037Z,12.68
2022-09-23T17:28:06.496Z,13.05
2022-09-23T17:33:04.113Z,14.43
2022-09-23T17:37:57.648Z,14.48
2022-09-23T17:42:53.854Z,14.93
2022-09-23T17:47:52.474Z,16.27
2022-09-23T17:52:45.715Z,14.97
2022-09-23T17:57:36.310Z,16.35
2022-09-23T18:02:29.809Z,16.55
2022-09-23T18:07:20.526Z,16.08
2022-09-23T18:12:12.119Z,16.52
2022-09-23T18:17:03.073Z,16.27
2022-09-23T18:22:01.749Z,17.23
2022-09-23T18:26:53.668Z,16.53
2022-09-23T18:31:44.712Z,17.83
2022-09-23T18:36:35.739Z,16.67
2022-09-23T18:41:30.240Z,18.05
2022-09-23T18:46:23.001Z,18.25
2022-09-23T18:51:14.734Z,16.27
2022-09-23T18:56:08.931Z,14.02
2022-09-23T19:01:06.487Z,11.20
2022-09-23T19:05:57.054Z,10.68
2022-09-23T19:10:46.890Z,9.43
2022-09-23T19:15:36.532Z,9.93
2022-09-23T19:20:30.553Z,10.15
2022-09-23T19:25:21.651Z,10.82
2022-09-23T19:30:13.792Z,11.03
2022-09-23T19:35:04.832Z,14.35
2022-09-23T19:39:58.227Z,14.30
2022-09-23T19:44:48.525Z,14.20
2022-09-23T19:49:38.712Z,14.57
2022-09-23T19:54:29.324Z,14.80
2022-09-23T19:59:22.629Z,14.90
2022-09-23T20:04:13.310Z,16.03
2022-09-23T20:09:04.164Z,17.13
2022-09-23T20:14:00.087Z,17.20
2022-09-23T20:18:55.839Z,17.67
2022-09-23T20:23:46.730Z,17.27
2022-09-23T20:28:37.025Z,18.90
2022-09-23T20:33:27.384Z,18.55
2022-09-23T20:38:21.628Z,17.55
2022-09-23T20:43:16.214Z,17.83
2022-09-23T20:48:11.363Z,18.60
2022-09-23T20:53:02.090Z,18.93
2022-09-23T20:57:55.655Z,19.57
2022-09-23T21:02:46.786Z,21.08
2022-09-23T21:07:37.722Z,21.80
2022-09-23T21:12:28.356Z,23.60
2022-09-23T21:17:21.836Z,25.55
2022-09-23T21:22:12.704Z,26.13
2022-09-23T21:27:03.414Z,26.73
2022-09-23T21:31:53.851Z,25.33
2022-09-23T21:36:48.329Z,27.25
2022-09-23T21:41:39.422Z,27.80
2022-09-23T21:46:30.706Z,28.88
2022-09-23T21:51:25.238Z,25.67
2022-09-23T21:56:21.161Z,24.83
2022-09-23T22:01:14.160Z,24.10
2022-09-23T22:06:09.820Z,21.48
2022-09-23T22:11:00.279Z,20.75
2022-09-23T22:15:53.558Z,20.63
2022-09-23T22:20:44.399Z,19.45
2022-09-23T22:25:35.177Z,20.00
2022-09-23T22:30:38.116Z,20.27
2022-09-23T22:35:31.893Z,18.35
2022-09-23T22:40:25.426Z,19.77
2022-09-23T22:45:16.159Z,19.23
2022-09-23T22:50:07.104Z,19.90
2022-09-23T22:55:00.517Z,20.70
2022-09-23T22:59:51.051Z,18.58
2022-09-23T23:04:41.985Z,18.73
2022-09-23T23:09:32.422Z,19.98
2022-09-23T23:14:26.579Z,18.83
2022-09-23T23:19:19.447Z,16.70
2022-09-23T23:24:10.483Z,18.48
2022-09-23T23:29:01.794Z,17.48
2022-09-23T23:33:55.347Z,16.57
2022-09-23T23:38:48.522Z,19.77
2022-09-23T23:43:39.589Z,23.07
2022-09-23T23:48:32.097Z,22.88
2022-09-23T23:53:25.441Z,26.55
2022-09-23T23:58:17.436Z,28.05
